Time;durP1;ratioP1;P1;durP2;ratioP2;P2;SDS_P1;SDS_P2;PMS_P1;PMS_P2;Temp;Humidity;BMP_temperature;BMP_pressure;BME280_temperature;BME280_humidity;BME280_pressure;Samples;Min_cycle;Max_cycle;Signal;HPM_P1;HPM_P2
2023/07/23 00:07:30;;;;;;;8.43;6.30;;;14.30;99.90;;;;;;25588914;23;20013;-54
2023/07/23 00:17:31;;;;;;;12.65;6.68;;;14.40;99.90;;;;;;25589965;23;20005;-56
2023/07/23 00:27:33;;;;;;;9.75;6.50;;;14.60;99.90;;;;;;25589817;23;20511;-52
2023/07/23 00:37:35;;;;;;;10.43;7.30;;;14.80;99.90;;;;;;25589104;23;20380;-51
2023/07/23 00:47:37;;;;;;;12.73;7.63;;;14.60;99.90;;;;;;25589255;23;20378;-51
2023/07/23 00:57:39;;;;;;;12.95;8.25;;;14.40;99.90;;;;;;25588855;23;20511;-51
2023/07/23 01:07:43;;;;;;;15.80;9.60;;;14.20;99.90;;;;;;25588941;23;20009;-54
2023/07/23 01:17:46;;;;;;;17.60;10.73;;;14.10;99.90;;;;;;25588725;23;20001;-49
2023/07/23 01:27:48;;;;;;;18.23;11.40;;;13.90;99.90;;;;;;25595990;23;20005;-51
2023/07/23 01:37:51;;;;;;;21.20;12.63;;;13.90;99.90;;;;;;25594633;23;20039;-51
2023/07/23 01:47:53;;;;;;;21.52;12.65;;;13.80;99.90;;;;;;25597599;23;20052;-50
2023/07/23 01:57:54;;;;;;;16.65;12.57;;;13.90;99.90;;;;;;25595235;23;20005;-54
2023/07/23 02:07:56;;;;;;;14.07;10.25;;;13.90;99.90;;;;;;25569228;23;20016;-51
2023/07/23 02:17:57;;;;;;;18.02;11.20;;;14.20;99.90;;;;;;25595026;23;20507;-51
2023/07/23 02:27:59;;;;;;;16.98;11.07;;;14.30;99.90;;;;;;25594354;23;20001;-55
2023/07/23 02:38:01;;;;;;;13.57;10.15;;;14.30;99.90;;;;;;25593393;23;20009;-54
2023/07/23 02:48:02;;;;;;;18.33;10.15;;;14.40;99.90;;;;;;25567545;23;20005;-55
2023/07/23 02:58:04;;;;;;;19.00;10.82;;;14.40;99.90;;;;;;25593318;23;20012;-43
2023/07/23 03:08:05;;;;;;;19.65;11.68;;;14.30;99.90;;;;;;25592995;23;20012;-53
2023/07/23 03:18:08;;;;;;;16.52;11.65;;;14.20;99.90;;;;;;25566429;23;20048;-55
2023/07/23 03:28:10;;;;;;;18.95;11.70;;;14.20;99.90;;;;;;25592255;23;20082;-52
2023/07/23 03:38:11;;;;;;;16.67;11.35;;;14.10;99.90;;;;;;25591454;23;20020;-55
2023/07/23 03:48:13;;;;;;;19.88;12.27;;;14.00;99.90;;;;;;25564841;23;20039;-54
2023/07/23 03:58:14;;;;;;;17.40;11.77;;;14.10;99.90;;;;;;25591216;23;20000;-51
2023/07/23 04:08:16;;;;;;;15.93;10.25;;;14.20;99.90;;;;;;25590433;23;20012;-50
2023/07/23 04:18:18;;;;;;;14.60;9.45;;;14.40;99.90;;;;;;25590168;23;20005;-52
2023/07/23 04:28:20;;;;;;;14.52;10.63;;;14.70;99.90;;;;;;25589944;23;20008;-52
2023/07/23 04:38:21;;;;;;;15.05;9.43;;;14.80;99.90;;;;;;25563161;23;20055;-50
2023/07/23 04:48:23;;;;;;;13.63;9.30;;;14.80;99.90;;;;;;25589307;23;20005;-55
2023/07/23 04:58:25;;;;;;;11.98;8.82;;;14.90;99.90;;;;;;25588870;23;20001;-50
2023/07/23 05:08:27;;;;;;;12.15;8.10;;;15.20;99.90;;;;;;25589036;23;20498;-51
2023/07/23 05:18:30;;;;;;;9.60;7.63;;;15.40;99.90;;;;;;25588974;23;20301;-53
2023/07/23 05:28:31;;;;;;;10.77;7.40;;;15.50;99.90;;;;;;25588545;23;20333;-55
2023/07/23 05:38:33;;;;;;;9.43;6.32;;;15.60;99.90;;;;;;25561758;23;20017;-51
2023/07/23 05:48:35;;;;;;;8.63;6.10;;;16.10;99.90;;;;;;25588250;23;20135;-53
2023/07/23 05:58:37;;;;;;;9.30;5.82;;;16.70;99.90;;;;;;25587834;23;20009;-54
2023/07/23 06:08:38;;;;;;;8.77;5.32;;;17.00;99.90;;;;;;25590283;23;20012;-52
2023/07/23 06:18:40;;;;;;;10.35;5.55;;;17.50;99.90;;;;;;25596165;23;20496;-56
2023/07/23 06:28:41;;;;;;;5.75;4.40;;;18.20;99.90;;;;;;25594292;23;20032;-55
2023/07/23 06:38:43;;;;;;;4.95;3.63;;;20.70;99.90;;;;;;25593822;23;20013;-57
2023/07/23 06:48:45;;;;;;;5.68;4.50;;;24.00;99.90;;;;;;25592847;23;20005;-45
2023/07/23 06:58:47;;;;;;;5.55;4.10;;;24.80;99.90;;;;;;25591041;23;20009;-53
2023/07/23 07:08:52;;;;;;;6.65;4.10;;;25.40;99.90;;;;;;25587623;23;20431;-59
2023/07/23 07:18:53;;;;;;;6.15;4.20;;;25.50;99.90;;;;;;25585637;23;20055;-59
2023/07/23 07:28:55;;;;;;;5.55;4.88;;;26.60;98.20;;;;;;25591457;23;20404;-59
2023/07/23 07:38:57;;;;;;;6.18;4.70;;;26.60;97.20;;;;;;25590142;23;20017;-59
2023/07/23 07:48:59;;;;;;;6.50;5.05;;;25.90;98.40;;;;;;25590615;23;20009;-58
2023/07/23 07:59:02;;;;;;;6.18;4.13;;;25.00;98.80;;;;;;25589044;23;20005;-46
2023/07/23 08:09:08;;;;;;;8.02;4.70;;;24.80;99.90;;;;;;25589668;23;20072;-58
2023/07/23 08:19:09;;;;;;;6.88;4.68;;;25.70;98.90;;;;;;25589497;23;20033;-58
2023/07/23 08:29:13;;;;;;;7.05;4.20;;;24.70;99.90;;;;;;25589297;23;20494;-59
2023/07/23 08:39:15;;;;;;;5.72;4.93;;;24.20;99.90;;;;;;25588794;23;20083;-58
2023/07/23 08:49:19;;;;;;;6.95;5.20;;;24.10;99.90;;;;;;25588529;23;20001;-57
2023/07/23 08:59:21;;;;;;;9.88;5.82;;;24.30;99.90;;;;;;25589772;23;20001;-47
2023/07/23 09:09:24;;;;;;;6.78;4.65;;;24.60;99.90;;;;;;25561346;23;20055;-58
2023/07/23 09:19:29;;;;;;;6.68;4.70;;;24.10;99.90;;;;;;25588082;23;20001;-57
2023/07/23 09:29:39;;;;;;;8.05;5.78;;;23.60;99.90;;;;;;25587595;23;20079;-58
2023/07/23 09:39:40;;;;;;;8.45;5.78;;;24.40;99.90;;;;;;25587949;23;20333;-58
2023/07/23 09:49:42;;;;;;;8.23;5.45;;;24.00;99.90;;;;;;25595185;23;20008;-58
2023/07/23 09:59:45;;;;;;;7.38;5.57;;;22.80;99.90;;;;;;25595008;23;20063;-57
2023/07/23 10:09:48;;;;;;;8.68;6.18;;;22.60;99.90;;;;;;25594602;23;20011;-58
2023/07/23 10:19:52;;;;;;;11.05;6.60;;;22.60;99.90;;;;;;25594496;23;20071;-58
2023/07/23 10:30:16;;;;;;;11.88;8.65;;;21.70;99.90;;;;;;25594303;23;20009;-58
2023/07/23 10:40:44;;;;;;;11.43;9.07;;;21.10;99.90;;;;;;25608244;23;20009;-58
2023/07/23 10:51:00;;;;;;;10.02;8.05;;;21.20;99.90;;;;;;25593567;23;20398;-49
2023/07/23 11:01:02;;;;;;;10.00;7.25;;;22.00;99.90;;;;;;25633718;23;20079;-56
2023/07/23 11:11:09;;;;;;;8.98;6.80;;;22.30;99.90;;;;;;25592270;23;20005;-56
2023/07/23 11:21:14;;;;;;;8.47;6.93;;;23.60;99.90;;;;;;25633203;23;20005;-57
2023/07/23 11:31:16;;;;;;;9.30;6.60;;;23.60;99.90;;;;;;25591324;23;20009;-48
2023/07/23 11:41:18;;;;;;;8.27;6.50;;;23.50;99.90;;;;;;25590640;23;20005;-58
2023/07/23 11:51:20;;;;;;;8.98;6.53;;;24.50;99.90;;;;;;25591013;23;20009;-58
2023/07/23 12:01:22;;;;;;;9.40;6.07;;;26.90;99.90;;;;;;25590417;23;20444;-47
2023/07/23 12:11:26;;;;;;;6.20;5.38;;;26.80;99.90;;;;;;25587951;23;20020;-57
2023/07/23 12:21:28;;;;;;;10.75;6.63;;;26.40;99.80;;;;;;25589363;23;20001;-58
2023/07/23 12:31:29;;;;;;;8.02;6.05;;;27.80;99.90;;;;;;25587453;23;20024;-58
2023/07/23 12:41:31;;;;;;;7.97;6.45;;;27.80;99.20;;;;;;25589114;23;20012;-59
2023/07/23 12:51:33;;;;;;;10.77;7.20;;;27.40;99.30;;;;;;25587271;23;20024;-59
2023/07/23 13:01:34;;;;;;;7.97;5.72;;;26.30;99.30;;;;;;25587991;23;20001;-59
2023/07/23 13:11:36;;;;;;;8.18;6.25;;;25.30;99.90;;;;;;25588045;23;20013;-59
2023/07/23 13:21:38;;;;;;;9.63;6.57;;;25.90;99.90;;;;;;25594361;23;20004;-57
2023/07/23 13:31:39;;;;;;;9.77;7.15;;;25.50;99.90;;;;;;25594791;23;20017;-59
2023/07/23 13:41:41;;;;;;;8.23;6.30;;;24.10;99.90;;;;;;25594547;23;20009;-57
2023/07/23 13:51:43;;;;;;;10.05;6.32;;;23.40;99.90;;;;;;25594117;23;20005;-56
2023/07/23 14:01:44;;;;;;;8.90;5.88;;;23.30;99.90;;;;;;25594129;23;20008;-57
2023/07/23 14:11:46;;;;;;;9.45;5.82;;;24.50;99.90;;;;;;25594357;23;20008;-57
2023/07/23 14:21:47;;;;;;;9.02;5.53;;;25.70;99.90;;;;;;25593687;23;20035;-55
2023/07/23 14:31:49;;;;;;;9.27;5.75;;;24.80;99.90;;;;;;25592447;23;20047;-57
2023/07/23 14:41:51;;;;;;;8.30;5.78;;;25.20;99.90;;;;;;25593668;23;20060;-57
2023/07/23 14:51:53;;;;;;;7.90;5.68;;;26.50;99.90;;;;;;25592532;23;20448;-57
2023/07/23 15:01:54;;;;;;;7.38;6.07;;;26.70;99.70;;;;;;25593144;23;20085;-57
2023/07/23 15:11:56;;;;;;;9.35;7.03;;;26.20;99.90;;;;;;25592408;23;20008;-56
2023/07/23 15:21:58;;;;;;;8.98;6.70;;;25.10;99.90;;;;;;25591326;23;20013;-57
2023/07/23 15:32:00;;;;;;;9.93;6.53;;;25.90;99.90;;;;;;25564991;23;20024;-56
2023/07/23 15:42:01;;;;;;;10.73;8.30;;;26.90;99.40;;;;;;25591119;23;20009;-57
2023/07/23 15:52:03;;;;;;;9.38;7.55;;;26.60;99.00;;;;;;25564141;23;20012;-57
2023/07/23 16:02:05;;;;;;;13.57;10.30;;;26.20;99.70;;;;;;25590702;23;20032;-57
2023/07/23 16:12:08;;;;;;;16.52;11.77;;;25.50;98.80;;;;;;25590629;23;20356;-57
2023/07/23 16:22:11;;;;;;;17.38;11.73;;;24.70;98.30;;;;;;25590062;23;20008;-58
2023/07/23 16:32:13;;;;;;;17.02;12.55;;;23.30;99.80;;;;;;25589472;23;20095;-56
2023/07/23 16:42:18;;;;;;;17.38;12.27;;;22.40;99.90;;;;;;25589224;23;20013;-59
2023/07/23 16:52:19;;;;;;;37.30;13.13;;;21.90;99.90;;;;;;25588105;23;20440;-60
2023/07/23 17:02:21;;;;;;;22.40;14.55;;;20.80;99.90;;;;;;25589068;23;20009;-59
2023/07/23 17:12:23;;;;;;;21.20;13.60;;;19.60;99.90;;;;;;25588627;23;20001;-58
2023/07/23 17:22:24;;;;;;;22.55;13.73;;;18.70;99.90;;;;;;25588500;23;20056;-56
2023/07/23 17:32:26;;;;;;;24.30;13.85;;;18.10;99.90;;;;;;25562217;23;20021;-58
2023/07/23 17:42:28;;;;;;;21.30;13.85;;;17.60;99.90;;;;;;25588276;23;20336;-58
2023/07/23 17:52:29;;;;;;;24.38;15.48;;;17.10;99.90;;;;;;25588974;23;20009;-57
2023/07/23 18:02:31;;;;;;;27.42;15.38;;;16.70;99.90;;;;;;25588663;23;20001;-57
2023/07/23 18:12:32;;;;;;;26.10;16.27;;;16.40;99.90;;;;;;25595060;23;20498;-57
2023/07/23 18:22:34;;;;;;;29.48;16.55;;;16.40;99.10;;;;;;25594807;23;20016;-56
2023/07/23 18:32:36;;;;;;;23.45;13.60;;;16.40;96.60;;;;;;25594401;23;20091;-45
2023/07/23 18:42:37;;;;;;;23.45;14.43;;;16.70;91.40;;;;;;25593944;23;20013;-58
2023/07/23 18:52:39;;;;;;;25.27;15.20;;;17.50;92.80;;;;;;25593741;23;20083;-58
2023/07/23 19:02:41;;;;;;;24.05;14.05;;;17.50;91.90;;;;;;25593133;23;20001;-46
2023/07/23 19:12:42;;;;;;;21.02;13.32;;;17.30;91.70;;;;;;25592665;23;20012;-55
2023/07/23 19:22:44;;;;;;;19.83;12.55;;;18.10;91.20;;;;;;25592335;23;20028;-57
2023/07/23 19:32:46;;;;;;;21.70;12.63;;;18.90;85.00;;;;;;25591820;23;20020;-55
2023/07/23 19:42:47;;;;;;;19.08;11.98;;;19.70;85.70;;;;;;25591632;23;20328;-55
2023/07/23 19:52:49;;;;;;;18.85;12.52;;;19.40;90.90;;;;;;25591093;23;20001;-57
2023/07/23 20:02:50;;;;;;;20.30;11.43;;;18.20;92.40;;;;;;25591997;23;20440;-58
2023/07/23 20:12:52;;;;;;;18.20;11.82;;;16.90;96.00;;;;;;25590406;23;20332;-45
2023/07/23 20:22:54;;;;;;;19.58;11.65;;;17.30;96.80;;;;;;25589775;23;20005;-54
2023/07/23 20:32:55;;;;;;;17.73;10.90;;;17.20;98.40;;;;;;25588891;23;20013;-49
2023/07/23 20:42:57;;;;;;;16.83;10.43;;;18.20;97.80;;;;;;25589319;23;20001;-45
2023/07/23 20:52:59;;;;;;;17.60;10.65;;;18.60;98.30;;;;;;25561841;23;20297;-55
2023/07/23 21:03:00;;;;;;;20.13;11.23;;;18.50;99.30;;;;;;25588804;23;20068;-57
2023/07/23 21:13:03;;;;;;;17.25;10.35;;;18.40;99.90;;;;;;25588569;23;20025;-57
2023/07/23 21:23:05;;;;;;;17.20;10.68;;;18.10;99.90;;;;;;25588371;23;20005;-56
2023/07/23 21:33:06;;;;;;;18.13;11.48;;;18.00;99.90;;;;;;25588454;23;20013;-44
2023/07/23 21:43:08;;;;;;;18.33;10.48;;;17.90;99.90;;;;;;25594407;23;20013;-45
2023/07/23 21:53:10;;;;;;;18.70;10.98;;;17.70;99.90;;;;;;25596175;23;20157;-57
2023/07/23 22:03:12;;;;;;;16.80;10.20;;;17.30;99.90;;;;;;25595616;23;20005;-57
2023/07/23 22:13:13;;;;;;;19.67;11.07;;;17.30;99.90;;;;;;25568946;23;20012;-58
2023/07/23 22:23:15;;;;;;;19.98;11.85;;;16.90;99.90;;;;;;25594714;23;20005;-44
2023/07/23 22:33:16;;;;;;;17.92;11.43;;;17.10;99.90;;;;;;25594378;23;20364;-55
2023/07/23 22:43:19;;;;;;;19.30;11.80;;;16.40;99.90;;;;;;25593803;23;20306;-57
2023/07/23 22:53:21;;;;;;;17.77;11.88;;;15.90;99.90;;;;;;25593197;23;20005;-57
2023/07/23 23:03:23;;;;;;;18.60;11.55;;;15.70;99.90;;;;;;25592988;23;20013;-45
2023/07/23 23:13:24;;;;;;;19.55;11.60;;;15.50;99.90;;;;;;25592798;23;20012;-57
2023/07/23 23:23:27;;;;;;;21.55;12.88;;;15.40;99.90;;;;;;25592329;23;20009;-57
2023/07/23 23:33:29;;;;;;;20.38;12.50;;;15.40;99.90;;;;;;25592180;23;20071;-47
2023/07/23 23:43:31;;;;;;;24.10;13.18;;;15.50;99.90;;;;;;25591626;23;20032;-56
2023/07/23 23:53:32;;;;;;;21.60;13.30;;;15.50;99.90;;;;;;25590971;23;20009;-57
